NCAR-RAP Real-Time Weather Data

Output produced by METARs form (08 May 2021  01:18 UTC)
found at http://weather.rap.ucar.edu/surface/
 
KVCT 080051Z 13011KT 10SM CLR 23/17 A3004 RMK AO2 SLP170 T02330172
KVCT 072351Z 12013KT 10SM CLR 26/15 A3004 RMK AO2 SLP172 T02560150 10294 20256 58019
KVCT 072251Z 12014KT 10SM CLR 27/15 A3007 RMK AO2 SLP179 T02720150
KVCT 072151Z 14017G21KT 10SM CLR 28/14 A3008 RMK AO2 SLP185 T02780144
KVCT 072051Z 12013KT 10SM CLR 29/16 A3010 RMK AO2 SLP191 T02890161 58021
KVCT 071951Z 13011KT 10SM CLR 29/16 A3012 RMK AO2 SLP199 T02890156
KVCT 071851Z 15009G14KT 10SM CLR 29/17 A3014 RMK AO2 SLP205 T02940167
KVCT 071751Z 12010KT 10SM CLR 28/16 A3017 RMK AO2 SLP213 T02830161 10283 20172 58005
KVCT 071651Z 09009KT 10SM CLR 28/16 A3019 RMK AO2 SLP220 T02780156
KVCT 071551Z 07008KT 050V120 10SM CLR 26/16 A3019 RMK AO2 SLP222 T02610161
KVCT 071541Z 11009KT 10SM CLR 26/16 A3019 RMK AO2 T02610161
KVCT 071451Z 07006KT 10SM CLR 24/19 A3018 RMK AO2 SLP218 T02390189 51010
KVCT 071351Z 02006KT 10SM CLR 22/19 A3018 RMK AO2 SLP218 T02220194
KVCT 071248Z COR 02004KT 6SM BR FEW006 19/18 A3017 RMK AO2 SLP216 T01890178
KVCT 071247Z 02004KT 3SM BR FEW006 18/18 A3017 RMK AO2
KVCT 071217Z 01004KT 1 1/4SM BR FEW006 17/17 A3016 RMK AO2 T01720167
KVCT 071204Z 01004KT 3/4SM BR FEW006 17/16 A3016 RMK AO2 T01720161
KVCT 071151Z 36004KT 1 1/4SM BR FEW006 17/16 A3015 RMK AO2 SLP208 T01720161 10200 20172 52008
KVCT 071140Z AUTO 01004KT 1 3/4SM BR SCT007 17/16 A3015 RMK AO2 T01720161
KVCT 071051Z AUTO 02004KT 3SM BR CLR 17/16 A3013 RMK AO2 SLP201 T01720161
KVCT 071033Z AUTO 01003KT 3SM BR FEW004 17/17 A3013 RMK AO2 T01720167
KVCT 071026Z AUTO 01004KT 2 1/2SM BR FEW004 17/17 A3013 RMK AO2 T01720167